AirNav   Pilot Hours Calculator
 
 978 users online  

1VA3 Tye River Airport
Lovingston, Virginia, USA

GOING TO LOVINGSTON?


FAA INFORMATION EFFECTIVE 25 MARCH 2021

Location

FAA Identifier: 1VA3
Lat/Long: 37-39-29.5100N 078-56-44.0800W
37-39.491833N 078-56.734667W
37.6581972,-78.9455778
(estimated)
Elevation: 650 ft. / 198 m (estimated)
Variation: 07W (1985)
From city: 7 miles SW of LOVINGSTON, VA
Time zone: UTC -4 (UTC -5 during Standard Time)
Zip code: 22922

Airport Operations

Airport use: Private use. Permission required prior to landing
Activation date: 05/1991
Control tower: no
ARTCC: WASHINGTON CENTER
FSS: LEESBURG FLIGHT SERVICE STATION
Attendance: UNATNDD
Segmented circle: no

Nearby radio navigation aids

VOR radial/distance  VOR name  Freq  Var
MOLr157/16.4MONTEBELLO VOR/DME115.3005W
LYHr035/27.9LYNCHBURG VOR/DME109.2005W

Airport Services

Runway Information

Runway 4/22

Dimensions: 1750 x 100 ft. / 533 x 30 m
Surface: turf
RUNWAY 4  RUNWAY 22
Traffic pattern: leftleft

Airport Ownership and Management from official FAA records

Ownership: Privately-owned
Owner: CAROL WALSH
485 TYE RIVER RD
ARRINGTON, VA 22922
Phone 434-263-5229
CELL: 434-941-9163
Manager: CAROL WALSH
485 TYE RIVER RD
ARRINGTON, VA 22922
Phone 434-263-5229

Airport Operational Statistics

Aircraft based on the field: 2
Single engine airplanes: 2
    

Additional Remarks

FOR CD CTC ROANOKE APCH AT 540-563-1307.

Instrument Procedures

There are no published instrument procedures at 1VA3.

Some nearby airports with instrument procedures:

W24 - Falwell Airport (19 nm SW)
KLYH - Lynchburg Regional Airport/Preston Glenn Field (23 nm SW)
W13 - Eagle's Nest Airport (25 nm N)
W90 - New London Airport (30 nm SW)
KFVX - Farmville Regional Airport (30 nm SE)
 
Loc | Ops | Rwys | IFR | FBO | Links
Com | Nav | Svcs | Stats | Notes
Area around 1VA3 (Tye River Airport)
 
Road maps at: MapQuest Bing Google
 
Aerial photo
No photo
 
Sectional chart

 
Airport distance calculator
Flying to Tye River Airport? Find the distance to fly.

From to 1VA3

Sunrise and sunset
Times for 11-Apr-2021
 Local
(UTC-4)
 Zulu
(UTC)
Morning civil twilight06:2110:21
Sunrise06:4710:47
Sunset19:4623:46
Evening civil twilight20:1300:13

Current date and time
Zulu (UTC)  12-Apr-2021 00:39:50
Local (UTC-4)  11-Apr-2021 20:39:50
 
METAR
KLYH 
24nm SW 
112354Z 28003KT 10SM BKN100 21/05 A2952 RMK AO2 SLP989 T02110050 10250 20206 53010
KW13 
25nm N 
120015Z AUTO 25005KT 10SM OVC090 19/05 A2953 RMK AO1 T01850050
K0V4 
31nm S 
120015Z AUTO 17007KT 10SM CLR 20/09 A2951 RMK AO1 T02030091
KFVX 
31nm SE 
120015Z AUTO 00000KT 18/10 A2950 RMK AO2 LTG DSNT NE T01830101 PWINO
KSHD 
37nm N 
120015Z AUTO 27005KT 10SM BKN100 18/06 A2954 RMK AO2 T01790060
KCHO 
37nm NE 
112353Z VRB03KT 10SM FEW100 22/04 A2947 RMK AO2 SLP975 T02220044 10261 20222 53009
KVBW 
43nm N 
120015Z AUTO 28006KT 10SM OVC100 18/06 A2952 RMK AO1 T01830057
KHSP 
45nm NW 
120015Z AUTO 27007KT 10SM OVC100 13/04 A2961 RMK AO2 LTG DSNT NE T01270035
KGVE 
47nm NE 
120015Z AUTO 00000KT 10SM SCT075 SCT095 20/10 A2948 RMK AO1 T01990096
TAF
KLYH 
24nm SW 
111735Z 1118/1218 22010G19KT P6SM VCSH FEW050 SCT150 TEMPO 1119/1122 4SM -SHRA BKN050 FM112200 24007KT P6SM FEW200 FM120200 VRB02KT P6SM FEW250 FM121500 26009KT P6SM SCT050
NOTAMs
Click for the latest NOTAMs
NOTAMs are issued by the DoD/FAA and will open in a separate window not controlled by AirNav.

 

 
 

Would you like to see your business listed on this page?

 If your business provides an interesting product or service to pilots, flight crews, aircraft, or users of the Tye River Airport, you should consider listing it here.  To start the listing process, click on the button below
 
Add a business
 

Other Pages about Tye River Airport

Update a link
 
Copyright © AirNav, LLC. All rights reserved. Privacy Policy  Contact